Time;durP1;ratioP1;P1;durP2;ratioP2;P2;SDS_P1;SDS_P2;PMS_P1;PMS_P2;Temp;Humidity;BMP_temperature;BMP_pressure;BME280_temperature;BME280_humidity;BME280_pressure;Samples;Min_cycle;Max_cycle;Signal;HPM_P1;HPM_P2
2023/07/23 00:00:29;;;;;;;10.20;6.37;;;;;;;14.73;100.00;100772.66;4936969;29;20032;-91
2023/07/23 00:02:55;;;;;;;11.70;7.07;;;;;;;14.80;100.00;100784.72;4955350;29;20035;-91
2023/07/23 00:05:23;;;;;;;11.27;6.63;;;;;;;14.86;100.00;100782.75;4940362;29;20373;-91
2023/07/23 00:07:49;;;;;;;12.50;7.30;;;;;;;14.72;100.00;100752.19;4940714;29;20031;-90
2023/07/23 00:10:14;;;;;;;8.75;6.18;;;;;;;14.76;100.00;100750.50;4952106;29;20536;-91
2023/07/23 00:12:39;;;;;;;11.13;6.77;;;;;;;14.87;100.00;100772.78;4937155;29;20055;-92
2023/07/23 00:15:05;;;;;;;11.47;6.53;;;;;;;14.81;100.00;100758.53;4936108;29;20027;-91
2023/07/23 00:17:30;;;;;;;12.05;7.18;;;;;;;14.70;100.00;100741.66;4935643;29;20031;-91
2023/07/23 00:19:56;;;;;;;10.37;7.07;;;;;;;14.83;100.00;100751.78;4936923;29;20023;-91
2023/07/23 00:22:21;;;;;;;9.07;7.30;;;;;;;14.78;100.00;100748.34;4936684;29;20066;-91
2023/07/23 00:24:46;;;;;;;11.07;6.50;;;;;;;14.85;100.00;100751.47;4936670;29;20032;-91
2023/07/23 00:27:13;;;;;;;9.77;6.80;;;;;;;14.86;100.00;100754.97;4937079;29;20036;-92
2023/07/23 00:29:42;;;;;;;10.75;7.07;;;;;;;14.81;100.00;100743.16;4935458;29;20452;-91
2023/07/23 00:32:08;;;;;;;10.32;6.82;;;;;;;14.76;100.00;100732.44;4939577;29;20495;-92
2023/07/23 00:34:34;;;;;;;10.68;6.40;;;;;;;14.79;100.00;100728.38;4936695;29;20055;-92
2023/07/23 00:36:59;;;;;;;10.57;7.40;;;;;;;14.82;100.00;100727.75;4935574;28;20106;-92
2023/07/23 00:39:25;;;;;;;9.63;6.38;;;;;;;14.80;100.00;100729.94;4935094;29;20139;-91
2023/07/23 00:41:50;;;;;;;10.77;6.30;;;;;;;14.79;100.00;100729.16;4940946;29;20032;-91
2023/07/23 00:44:16;;;;;;;11.90;6.90;;;;;;;14.78;100.00;100724.84;4941513;29;20034;-92
2023/07/23 00:46:42;;;;;;;8.68;6.63;;;;;;;14.74;100.00;100714.94;4939716;29;20059;-92
2023/07/23 00:49:07;;;;;;;9.82;6.32;;;;;;;14.68;100.00;100703.41;4941699;29;20361;-91
2023/07/23 00:51:34;;;;;;;11.13;6.97;;;;;;;14.72;100.00;100706.31;4940655;29;20079;-91
2023/07/23 00:53:59;;;;;;;10.38;6.88;;;;;;;14.55;100.00;100675.22;4940507;29;20027;-91
2023/07/23 00:56:25;;;;;;;13.02;7.55;;;;;;;14.53;100.00;100672.00;4941258;29;20052;-91
2023/07/23 00:58:51;;;;;;;12.07;6.93;;;;;;;14.69;100.00;100697.72;4940608;29;20042;-91
2023/07/23 01:01:18;;;;;;;10.50;6.37;;;;;;;14.71;100.00;100693.94;4942925;29;20292;-92
2023/07/23 01:03:43;;;;;;;10.50;7.13;;;;;;;14.66;100.00;100682.06;4943054;28;20056;-95
2023/07/23 01:06:11;;;;;;;9.47;6.40;;;;;;;14.66;100.00;100684.78;4943810;29;20028;-92
2023/07/23 01:08:41;;;;;;;8.00;6.13;;;;;;;14.65;100.00;100675.09;4946101;29;20107;-92
2023/07/23 01:11:07;;;;;;;8.30;6.60;;;;;;;14.67;100.00;100678.28;4940618;29;20047;-92
2023/07/23 01:13:35;;;;;;;7.88;6.50;;;;;;;14.47;100.00;100647.00;4940007;29;20079;-92
2023/07/23 01:16:07;;;;;;;8.73;6.50;;;;;;;14.57;100.00;100650.66;4939299;29;20031;-91
2023/07/23 01:18:34;;;;;;;9.00;5.87;;;;;;;14.59;100.00;100646.59;4939052;29;20299;-92
2023/07/23 01:20:59;;;;;;;11.68;6.53;;;;;;;14.51;100.00;100631.88;4940866;29;20023;-92
2023/07/23 01:23:25;;;;;;;11.68;6.10;;;;;;;14.58;100.00;100628.00;4960946;29;20253;-92
2023/07/23 01:25:50;;;;;;;11.37;6.50;;;;;;;14.52;100.00;100616.47;4946914;29;20023;-92
2023/07/23 01:28:15;;;;;;;11.40;6.27;;;;;;;14.74;100.00;100642.13;4951870;29;20032;-91
2023/07/23 01:30:42;;;;;;;11.33;5.63;;;;;;;14.74;100.00;100642.13;4956334;29;20024;-93
2023/07/23 01:33:07;;;;;;;8.13;5.53;;;;;;;14.76;100.00;100638.03;4946390;29;20027;-93
2023/07/23 01:35:33;;;;;;;7.63;5.90;;;;;;;14.79;100.00;100631.28;4946185;29;20027;-92
2023/07/23 01:37:59;;;;;;;8.77;5.47;;;;;;;14.81;100.00;100629.06;4946073;29;20027;-92
2023/07/23 01:40:25;;;;;;;9.60;6.05;;;;;;;14.83;100.00;100622.28;4939374;29;20031;-93
2023/07/23 01:42:50;;;;;;;8.83;6.17;;;;;;;14.81;100.00;100621.78;4938866;29;20075;-92
2023/07/23 01:45:15;;;;;;;11.93;7.00;;;;;;;14.81;100.00;100626.34;4939061;29;20476;-92
2023/07/23 01:47:41;;;;;;;8.00;5.60;;;;;;;14.82;100.00;100626.09;4938993;29;20036;-93
2023/07/23 01:50:07;;;;;;;13.73;6.13;;;;;;;14.79;100.00;100615.88;4942134;29;20031;-92
2023/07/23 01:52:33;;;;;;;8.48;6.28;;;;;;;14.77;100.00;100611.88;4946624;29;20034;-92
2023/07/23 01:54:58;;;;;;;9.13;5.85;;;;;;;14.74;100.00;100597.06;4947614;29;20028;-92
2023/07/23 01:57:24;;;;;;;9.63;6.37;;;;;;;14.76;100.00;100599.47;4948139;28;20117;-91
2023/07/23 01:59:49;;;;;;;9.03;6.40;;;;;;;14.68;100.00;100585.56;4944495;29;20036;-91
2023/07/23 02:02:15;;;;;;;11.05;6.03;;;;;;;14.60;100.00;100575.41;4946745;29;20079;-91
2023/07/23 02:04:40;;;;;;;7.97;5.87;;;;;;;14.68;100.00;100593.63;4942639;29;20103;-93
2023/07/23 02:07:05;;;;;;;9.37;6.97;;;;;;;14.72;100.00;100585.75;4943372;29;20056;-92
2023/07/23 02:09:31;;;;;;;12.60;6.60;;;;;;;14.59;100.00;100556.81;4940877;29;20031;-92
2023/07/23 02:11:56;;;;;;;11.07;6.70;;;;;;;14.71;100.00;100577.97;4941197;29;20091;-92
2023/07/23 02:14:21;;;;;;;10.83;6.80;;;;;;;14.74;100.00;100569.31;4942054;29;20279;-93
2023/07/23 02:16:47;;;;;;;10.00;6.50;;;;;;;14.62;100.00;100558.91;4941219;29;20038;-92
2023/07/23 02:19:13;;;;;;;11.13;6.20;;;;;;;14.76;100.00;100569.81;4939777;29;20062;-93
2023/07/23 02:21:38;;;;;;;7.75;6.10;;;;;;;14.80;100.00;100565.41;4939019;29;20028;-93
2023/07/23 02:24:05;;;;;;;8.43;6.60;;;;;;;14.64;100.00;100535.94;4938739;29;20028;-93
2023/07/23 02:26:30;;;;;;;12.40;6.50;;;;;;;14.84;100.00;100564.56;4937894;29;20027;-93
2023/07/23 02:28:56;;;;;;;10.90;6.20;;;;;;;14.82;100.00;100547.03;4938350;29;20034;-93
2023/07/23 02:31:21;;;;;;;9.05;5.50;;;;;;;14.82;100.00;100550.56;4938131;29;20534;-92
2023/07/23 02:33:46;;;;;;;7.90;5.70;;;;;;;14.74;100.00;100526.94;4937684;29;20034;-92
2023/07/23 02:36:11;;;;;;;13.43;5.83;;;;;;;14.78;100.00;100532.56;4938068;29;20036;-93
2023/07/23 02:38:38;;;;;;;7.93;6.10;;;;;;;14.84;100.00;100542.97;4940233;29;20400;-93
2023/07/23 02:41:04;;;;;;;8.93;5.65;;;;;;;14.83;100.00;100535.97;4943309;29;20124;-91
2023/07/23 02:52:04;;;;;;;10.55;5.60;;;;;;;14.91;100.00;100537.22;1372608;26;20047;-94
2023/07/23 02:54:30;;;;;;;7.75;5.30;;;;;;;14.95;100.00;100538.22;4945877;29;20407;-92
2023/07/23 02:56:55;;;;;;;9.73;5.13;;;;;;;14.92;100.00;100533.41;4944037;29;20067;-93
2023/07/23 02:59:21;;;;;;;8.18;4.70;;;;;;;14.77;100.00;100491.28;4949380;29;20064;-91
2023/07/23 03:01:46;;;;;;;8.20;4.30;;;;;;;15.06;100.00;100538.88;4954278;29;20154;-92
2023/07/23 03:04:13;;;;;;;6.97;4.90;;;;;;;15.09;100.00;100529.38;4955767;28;20055;-92
2023/07/23 03:06:39;;;;;;;7.32;4.03;;;;;;;15.15;100.00;100536.31;4953534;29;20031;-91
2023/07/23 03:09:04;;;;;;;5.93;4.10;;;;;;;15.21;100.00;100532.41;4954810;29;20059;-92
2023/07/23 03:11:31;;;;;;;7.53;4.20;;;;;;;15.07;100.00;100507.28;4953016;29;20259;-91
2023/07/23 03:13:57;;;;;;;6.25;4.43;;;;;;;15.19;100.00;100514.91;4953411;29;20020;-91
2023/07/23 03:16:22;;;;;;;7.90;4.33;;;;;;;15.07;100.00;100504.56;4947138;29;20556;-93
2023/07/23 03:18:47;;;;;;;6.73;4.30;;;;;;;15.11;100.00;100506.38;4940094;29;20483;-92
2023/07/23 03:21:13;;;;;;;4.47;3.67;;;;;;;15.08;100.00;100488.09;4945509;29;20028;-94
2023/07/23 03:23:38;;;;;;;6.95;3.83;;;;;;;15.26;100.00;100523.41;4942455;29;20510;-93
2023/07/23 03:26:03;;;;;;;9.43;4.27;;;;;;;15.28;100.00;100513.94;4940681;29;20051;-91
2023/07/23 03:28:29;;;;;;;7.50;4.27;;;;;;;15.26;100.00;100518.81;4940606;29;20672;-94
2023/07/23 03:30:54;;;;;;;7.90;4.57;;;;;;;15.30;100.00;100516.31;4939961;29;20059;-92
2023/07/23 03:33:20;;;;;;;7.43;3.93;;;;;;;15.28;100.00;100513.13;4938748;29;20062;-91
2023/07/23 03:35:45;;;;;;;11.37;4.10;;;;;;;15.33;100.00;100517.66;4938497;29;20051;-92
2023/07/23 03:38:10;;;;;;;7.40;4.23;;;;;;;15.23;100.00;100505.91;4942336;29;20043;-93
2023/07/23 03:40:36;;;;;;;6.22;3.83;;;;;;;15.38;100.00;100517.53;4943746;29;20031;-92
2023/07/23 03:43:01;;;;;;;5.27;4.13;;;;;;;15.21;100.00;100491.13;4940983;29;20031;-93
2023/07/23 03:45:26;;;;;;;8.20;4.10;;;;;;;15.28;100.00;100513.13;4940946;29;20032;-93
2023/07/23 03:47:52;;;;;;;6.73;4.30;;;;;;;15.12;100.00;100485.63;4939484;29;20510;-93
2023/07/23 03:50:17;;;;;;;6.67;4.03;;;;;;;15.11;100.00;100487.50;4939887;29;20464;-93
2023/07/23 03:52:42;;;;;;;8.18;4.15;;;;;;;15.26;100.00;100516.13;4936660;29;20563;-93
2023/07/23 03:55:08;;;;;;;8.37;4.00;;;;;;;15.17;100.00;100496.28;4937360;29;20107;-93
2023/07/23 03:57:33;;;;;;;4.90;3.90;;;;;;;15.23;100.00;100507.81;4937514;29;20487;-93
2023/07/23 03:59:59;;;;;;;6.63;4.00;;;;;;;15.17;100.00;100496.28;4938420;29;20056;-93
2023/07/23 04:02:24;;;;;;;5.30;3.53;;;;;;;15.27;100.00;100515.03;4944824;28;20020;-94
2023/07/23 04:04:49;;;;;;;6.67;3.67;;;;;;;15.27;100.00;100517.72;4950441;28;20042;-92
2023/07/23 04:07:15;;;;;;;5.33;3.57;;;;;;;15.26;100.00;100513.44;4937855;29;20032;-93
2023/07/23 04:09:40;;;;;;;4.87;3.60;;;;;;;15.19;100.00;100501.41;4951126;28;20012;-93
2023/07/23 04:12:06;;;;;;;6.22;3.65;;;;;;;15.31;100.00;100517.13;4946221;29;20499;-93
2023/07/23 04:14:32;;;;;;;5.33;3.40;;;;;;;15.32;100.00;100513.34;4940029;28;20063;-94
2023/07/23 04:16:57;;;;;;;7.18;3.50;;;;;;;15.21;100.00;100496.53;4937364;29;20031;-93
2023/07/23 04:19:22;;;;;;;6.43;3.90;;;;;;;15.21;100.00;100491.91;4939840;29;20099;-93
2023/07/23 04:21:49;;;;;;;5.27;3.10;;;;;;;15.21;100.00;100486.50;4950136;28;20035;-92
2023/07/23 04:24:14;;;;;;;6.90;3.38;;;;;;;15.27;100.00;100495.31;4959760;28;20020;-93
2023/07/23 04:26:40;;;;;;;8.53;3.60;;;;;;;15.39;100.00;100511.03;4959028;28;20019;-93
2023/07/23 04:29:08;;;;;;;5.87;3.90;;;;;;;15.50;100.00;100517.88;4959478;28;20311;-93
2023/07/23 04:31:33;;;;;;;6.63;3.55;;;;;;;15.49;100.00;100515.44;4958332;28;20062;-94
2023/07/23 04:34:00;;;;;;;7.45;3.60;;;;;;;15.57;100.00;100520.97;4959239;28;20091;-94
2023/07/23 04:36:26;;;;;;;5.83;3.27;;;;;;;15.36;100.00;100476.53;4958590;28;20012;-94
2023/07/23 04:38:51;;;;;;;4.43;3.60;;;;;;;15.60;100.00;100506.88;4958467;28;20310;-94
2023/07/23 04:41:17;;;;;;;10.03;3.40;;;;;;;15.71;100.00;100520.16;4958908;28;20322;-94
2023/07/23 04:43:42;;;;;;;6.10;3.07;;;;;;;15.77;100.00;100524.38;4959242;28;20016;-94
2023/07/23 04:46:08;;;;;;;4.93;3.15;;;;;;;15.82;100.00;100521.56;4954527;28;20029;-94
2023/07/23 04:48:34;;;;;;;5.90;3.40;;;;;;;15.70;100.00;100502.38;4951715;29;20543;-95
2023/07/23 04:51:02;;;;;;;9.80;3.30;;;;;;;15.81;100.00;100511.88;4949445;29;20306;-95
2023/07/23 04:53:27;;;;;;;6.10;3.40;;;;;;;15.78;100.00;100503.56;4940456;29;20575;-93
2023/07/23 04:55:54;;;;;;;5.00;3.13;;;;;;;15.86;100.00;100502.88;4938812;29;20051;-92
2023/07/23 04:58:20;;;;;;;4.53;3.20;;;;;;;15.90;100.00;100503.88;4937755;29;20083;-92
2023/07/23 05:00:46;;;;;;;5.43;2.97;;;;;;;16.00;100.00;100516.38;4937518;29;20288;-93
2023/07/23 05:03:11;;;;;;;4.22;3.10;;;;;;;15.90;100.00;100504.66;4938261;28;20115;-94
2023/07/23 05:05:43;;;;;;;5.67;3.40;;;;;;;15.97;100.00;100514.28;4938056;29;20028;-95
2023/07/23 05:08:08;;;;;;;5.78;2.92;;;;;;;15.99;100.00;100522.91;4938616;29;20067;-94
2023/07/23 05:10:34;;;;;;;6.70;3.03;;;;;;;16.01;100.00;100512.59;4937966;29;20032;-95
2023/07/23 05:12:59;;;;;;;4.73;2.90;;;;;;;16.02;100.00;100514.19;4937517;29;20044;-94
2023/07/23 05:15:25;;;;;;;6.27;2.90;;;;;;;16.04;100.00;100512.78;4937945;29;20480;-94
2023/07/23 05:17:50;;;;;;;8.32;3.03;;;;;;;15.84;100.00;100508.56;4935271;29;20048;-95
2023/07/23 05:20:16;;;;;;;6.80;3.23;;;;;;;15.82;100.00;100516.16;4936575;29;20106;-95
2023/07/23 05:22:41;;;;;;;6.03;2.90;;;;;;;15.75;100.00;100513.06;4943735;28;20019;-95
2023/07/23 05:25:08;;;;;;;3.60;3.10;;;;;;;15.65;100.00;100505.16;4953744;28;20036;-96
2023/07/23 05:27:33;;;;;;;5.75;3.35;;;;;;;15.81;100.00;100519.97;4940070;29;20035;-95
2023/07/23 05:29:59;;;;;;;8.20;3.60;;;;;;;15.86;100.00;100529.91;4957801;28;20060;-95
2023/07/23 05:32:24;;;;;;;4.93;3.17;;;;;;;15.80;100.00;100517.56;4946177;29;20028;-94
2023/07/23 05:34:50;;;;;;;9.43;3.27;;;;;;;15.60;100.00;100495.28;4950573;29;20019;-96
2023/07/23 05:37:15;;;;;;;6.70;3.37;;;;;;;15.71;100.00;100515.56;4961786;28;20123;-94
2023/07/23 05:39:40;;;;;;;6.35;3.10;;;;;;;15.75;100.00;100521.16;4961868;28;20019;-94
2023/07/23 05:42:06;;;;;;;4.23;3.23;;;;;;;15.75;100.00;100510.34;4961312;28;20034;-95
2023/07/23 05:44:32;;;;;;;4.17;3.03;;;;;;;15.92;100.00;100511.69;4961835;28;20015;-94
2023/07/23 05:46:57;;;;;;;4.55;3.30;;;;;;;16.03;100.00;100513.09;4961577;28;20059;-94
2023/07/23 05:49:24;;;;;;;6.57;3.20;;;;;;;16.09;100.00;100519.97;4961675;28;20040;-95
2023/07/23 05:51:50;;;;;;;4.68;3.00;;;;;;;16.05;100.00;100514.38;4961744;28;20039;-94
2023/07/23 05:54:15;;;;;;;3.38;2.80;;;;;;;16.03;100.00;100521.19;4961206;28;20126;-95
2023/07/23 06:05:25;;;;;;;5.90;3.07;;;;;;;15.81;100.00;100474.03;4928400;29;20319;-95
2023/07/23 06:07:50;;;;;;;9.07;3.42;;;;;;;16.11;100.00;100501.53;4927665;29;20318;-95
2023/07/23 06:10:17;;;;;;;5.67;3.20;;;;;;;16.09;100.00;100492.16;4914703;29;20033;-95
2023/07/23 06:12:43;;;;;;;6.50;2.90;;;;;;;16.20;100.00;100504.34;4909103;29;20179;-95
2023/07/23 06:15:11;;;;;;;4.83;3.03;;;;;;;16.25;100.00;100509.63;4911199;29;20509;-95
2023/07/23 06:17:37;;;;;;;4.45;3.10;;;;;;;16.27;100.00;100506.63;4904712;29;20508;-96
2023/07/23 06:20:03;;;;;;;5.33;3.00;;;;;;;16.02;100.00;100481.75;4905346;29;20053;-96
2023/07/23 06:22:28;;;;;;;7.22;3.10;;;;;;;15.80;100.00;100479.72;4918410;29;20036;-95
2023/07/23 06:24:54;;;;;;;6.40;3.27;;;;;;;15.67;100.00;100501.06;4903638;29;20029;-96
2023/07/23 06:27:19;;;;;;;9.27;3.08;;;;;;;15.66;100.00;100514.88;4902981;29;20073;-94
2023/07/23 06:29:44;;;;;;;7.10;3.13;;;;;;;15.45;100.00;100513.34;4901311;29;20103;-93
2023/07/23 06:32:10;;;;;;;6.83;3.37;;;;;;;15.35;100.00;100512.72;4901932;29;20491;-93
2023/07/23 06:34:36;;;;;;;8.38;3.88;;;;;;;15.53;100.00;100524.56;4901410;29;20040;-94
2023/07/23 06:37:01;;;;;;;5.00;3.50;;;;;;;15.55;100.00;100506.94;4900439;29;20021;-95
2023/07/23 06:39:27;;;;;;;5.50;3.28;;;;;;;15.74;100.00;100524.97;4899991;29;20433;-94
2023/07/23 06:41:52;;;;;;;4.27;3.20;;;;;;;15.96;100.00;100535.13;4917218;29;20043;-94
2023/07/23 06:44:18;;;;;;;6.73;3.27;;;;;;;15.78;100.00;100487.38;4911420;29;20021;-94
2023/07/23 06:46:43;;;;;;;4.70;3.05;;;;;;;16.11;100.00;100533.19;4908042;29;20500;-93
2023/07/23 06:49:12;;;;;;;7.43;3.10;;;;;;;16.27;100.00;100537.16;4914944;29;20150;-94
2023/07/23 06:51:37;;;;;;;6.32;3.45;;;;;;;16.18;100.00;100510.06;4920141;29;20029;-94
2023/07/23 06:54:03;;;;;;;6.93;3.33;;;;;;;16.52;100.00;100553.94;4903438;29;20029;-95
2023/07/23 06:56:28;;;;;;;7.70;3.80;;;;;;;16.37;100.00;100538.84;4903132;29;20092;-94
2023/07/23 06:58:53;;;;;;;8.32;3.33;;;;;;;16.44;100.00;100552.75;4901906;29;20036;-95
2023/07/23 07:01:21;;;;;;;10.10;3.80;;;;;;;16.27;100.00;100539.06;4902715;29;20032;-94
2023/07/23 07:03:46;;;;;;;5.93;3.63;;;;;;;16.21;100.00;100551.88;4921476;29;20020;-94
2023/07/23 07:06:12;;;;;;;5.50;3.63;;;;;;;16.00;100.00;100538.00;4919348;29;20075;-93
2023/07/23 07:08:37;;;;;;;5.75;4.15;;;;;;;15.87;100.00;100535.03;4920549;29;20016;-94
2023/07/23 07:11:03;;;;;;;6.77;3.87;;;;;;;15.79;100.00;100515.97;4921560;29;20025;-93
2023/07/23 07:13:30;;;;;;;7.43;3.80;;;;;;;15.89;100.00;100550.91;4922021;29;20016;-93
2023/07/23 07:15:56;;;;;;;10.00;3.92;;;;;;;15.88;100.00;100552.00;4936942;29;20032;-92
2023/07/23 07:18:21;;;;;;;5.90;3.43;;;;;;;15.67;100.00;100546.97;4925836;29;20036;-92
2023/07/23 07:21:00;;;;;;;7.07;3.63;;;;;;;15.58;100.00;100552.25;4902971;29;20036;-92
2023/07/23 07:23:29;;;;;;;6.00;4.30;;;;;;;15.34;100.00;100528.13;4898624;29;20320;-91
2023/07/23 07:25:55;;;;;;;6.63;4.10;;;;;;;15.33;100.00;100553.53;4881707;29;20032;-91
2023/07/23 07:28:21;;;;;;;7.88;4.32;;;;;;;14.95;100.00;100522.03;4898664;29;20028;-90
2023/07/23 07:30:46;;;;;;;5.78;3.65;;;;;;;15.10;100.00;100545.25;4899230;29;20032;-91
2023/07/23 07:41:44;;;;;;;9.68;4.22;;;;;;;14.80;100.00;100506.06;5294917;23;20051;-92
2023/07/23 07:44:09;;;;;;;13.63;4.80;;;;;;;15.07;100.00;100528.88;4942522;29;20031;-93
2023/07/23 07:46:35;;;;;;;6.17;4.40;;;;;;;15.48;100.00;100544.38;4953993;29;20024;-93
2023/07/23 07:49:01;;;;;;;7.97;5.10;;;;;;;15.68;100.00;100532.38;4958894;29;20020;-93
2023/07/23 07:51:26;;;;;;;8.33;5.00;;;;;;;15.88;100.00;100520.41;4957319;29;20022;-93
2023/07/23 07:53:51;;;;;;;10.07;4.77;;;;;;;16.19;100.00;100537.88;4959354;29;20019;-92
2023/07/23 07:56:17;;;;;;;9.07;5.25;;;;;;;16.40;100.00;100551.78;4958898;29;20035;-93
2023/07/23 07:58:46;;;;;;;9.57;5.00;;;;;;;16.47;100.00;100541.31;4958632;29;20108;-92
2023/07/23 08:01:12;;;;;;;7.05;4.80;;;;;;;16.65;100.00;100538.75;4958167;29;20212;-94
2023/07/23 08:03:38;;;;;;;8.63;4.60;;;;;;;16.66;100.00;100545.78;4941969;29;20051;-92
2023/07/23 08:06:12;;;;;;;9.33;5.37;;;;;;;16.49;100.00;100541.03;4956725;29;20023;-93
2023/07/23 08:08:40;;;;;;;7.95;4.60;;;;;;;16.58;100.00;100541.91;4925820;29;20046;-94
2023/07/23 08:11:07;;;;;;;8.45;5.10;;;;;;;16.74;100.00;100526.13;4944047;29;20051;-94
2023/07/23 08:13:36;;;;;;;7.40;4.65;;;;;;;17.17;100.00;100551.91;4950046;29;20102;-93
2023/07/23 08:16:02;;;;;;;7.05;4.55;;;;;;;17.19;100.00;100532.63;4942616;29;20058;-94
2023/07/23 08:18:30;;;;;;;4.82;3.88;;;;;;;17.54;100.00;100559.91;4941084;29;20070;-95
2023/07/23 08:20:57;;;;;;;5.70;4.50;;;;;;;17.43;100.00;100553.16;4935683;29;20028;-94
2023/07/23 08:23:25;;;;;;;5.90;3.72;;;;;;;17.41;100.00;100540.72;4936141;29;20028;-95
2023/07/23 08:26:05;;;;;;;5.22;3.40;;;;;;;17.47;100.00;100557.63;4935216;29;20023;-95
2023/07/23 08:28:38;;;;;;;5.07;3.60;;;;;;;17.47;100.00;100544.09;4936016;29;20082;-95
2023/07/23 08:31:07;;;;;;;7.50;3.30;;;;;;;17.46;100.00;100509.22;4934537;29;20035;-94
2023/07/23 08:33:36;;;;;;;3.67;3.28;;;;;;;17.77;100.00;100530.84;4935879;29;20435;-95
2023/07/23 08:36:04;;;;;;;5.72;3.33;;;;;;;17.91;100.00;100514.44;4934381;28;20068;-95
2023/07/23 08:38:52;;;;;;;4.03;2.78;;;;;;;18.29;100.00;100546.47;4935772;29;20032;-95
2023/07/23 08:41:59;;;;;;;5.10;3.00;;;;;;;18.24;100.00;100527.66;4932298;29;20039;-95
2023/07/23 08:44:43;;;;;;;3.57;2.53;;;;;;;18.33;100.00;100553.97;4935818;28;20044;-96
2023/07/23 08:47:45;;;;;;;3.73;2.83;;;;;;;18.16;100.00;100529.22;4939851;29;20284;-95
2023/07/23 08:50:21;;;;;;;3.22;2.80;;;;;;;17.99;100.00;100505.59;4938042;29;20080;-95
2023/07/23 08:53:34;;;;;;;;;;;;;;;;;;;;;
2023/07/23 09:00:02;;;;;;;;;;;;;;;;;;;;;
2023/07/23 09:33:56;;;;;;;2.65;2.20;;;;;;;17.68;100.00;100541.66;4957147;29;20487;-92
2023/07/23 09:36:25;;;;;;;2.70;2.50;;;;;;;17.43;100.00;100564.81;4939865;29;20030;-92
2023/07/23 09:39:04;;;;;;;3.85;2.55;;;;;;;17.08;100.00;100565.38;4938773;29;20036;-92
2023/07/23 09:41:37;;;;;;;2.93;2.20;;;;;;;16.80;100.00;100568.16;4938773;29;20039;-93
2023/07/23 09:44:11;;;;;;;3.00;2.53;;;;;;;16.62;100.00;100572.66;4938134;29;20286;-92
2023/07/23 09:46:38;;;;;;;3.05;2.70;;;;;;;16.48;100.00;100559.16;4938111;29;20403;-93
2023/07/23 09:49:03;;;;;;;4.22;2.47;;;;;;;16.43;100.00;100555.75;4937638;29;20067;-92
2023/07/23 09:51:31;;;;;;;4.40;2.70;;;;;;;16.59;100.00;100569.75;4937864;29;20032;-92
2023/07/23 09:54:02;;;;;;;5.28;3.10;;;;;;;16.65;100.00;100563.09;4940805;29;20024;-92
2023/07/23 09:56:28;;;;;;;2.80;2.53;;;;;;;16.68;100.00;100573.31;4939018;29;20119;-92
2023/07/23 09:58:54;;;;;;;3.08;2.78;;;;;;;16.67;100.00;100560.91;4938112;29;20110;-92
2023/07/23 10:01:20;;;;;;;4.57;2.70;;;;;;;16.81;100.00;100575.19;4938723;29;20649;-93
2023/07/23 10:03:47;;;;;;;3.40;2.80;;;;;;;16.84;100.00;100578.38;4937229;29;20555;-91
2023/07/23 10:11:23;;;;;;;3.33;2.42;;;;;;;16.42;100.00;100575.78;5881831;23;20044;-92
2023/07/23 10:13:50;;;;;;;2.80;2.30;;;;;;;16.28;100.00;100568.50;4937091;29;20042;-91
2023/07/23 10:16:22;;;;;;;3.13;2.35;;;;;;;16.15;100.00;100558.53;4939896;29;20027;-91
2023/07/23 10:18:50;;;;;;;2.53;1.90;;;;;;;16.23;100.00;100584.03;4939404;29;20032;-91
2023/07/23 10:21:15;;;;;;;2.33;2.13;;;;;;;16.18;100.00;100577.63;4939195;29;20039;-92
2023/07/23 10:23:41;;;;;;;2.47;2.10;;;;;;;16.24;100.00;100578.31;4937927;29;20031;-91
2023/07/23 10:26:40;;;;;;;2.60;2.40;;;;;;;16.35;100.00;100587.03;4937383;29;20114;-92
2023/07/23 10:29:14;;;;;;;2.50;2.30;;;;;;;16.49;100.00;100587.00;4925108;29;20106;-92
2023/07/23 10:31:42;;;;;;;2.27;2.03;;;;;;;16.62;100.00;100586.16;4937602;29;20288;-91
2023/07/23 10:34:23;;;;;;;2.33;2.00;;;;;;;16.85;100.00;100588.09;4939306;29;20098;-92
2023/07/23 10:37:14;;;;;;;2.90;1.90;;;;;;;17.03;100.00;100595.28;4937892;29;20040;-93
2023/07/23 10:39:40;;;;;;;1.98;1.75;;;;;;;17.03;100.00;100591.78;4939556;29;20028;-92
2023/07/23 10:42:06;;;;;;;2.20;2.00;;;;;;;17.03;100.00;100591.78;4935796;29;20032;-93
2023/07/23 10:44:32;;;;;;;4.50;1.88;;;;;;;16.96;100.00;100584.09;4939011;29;20027;-92
2023/07/23 10:46:58;;;;;;;2.77;1.90;;;;;;;16.92;100.00;100583.06;4945684;29;20039;-91
2023/07/23 10:49:27;;;;;;;2.60;2.30;;;;;;;16.98;100.00;100594.59;4947685;29;20315;-92
2023/07/23 10:51:53;;;;;;;2.58;2.20;;;;;;;17.04;100.00;100590.69;4937050;29;20027;-92
2023/07/23 10:54:20;;;;;;;2.47;2.10;;;;;;;16.98;100.00;100565.63;4952277;29;20043;-92
2023/07/23 10:56:48;;;;;;;2.65;2.45;;;;;;;17.12;100.00;100570.97;4940233;29;20051;-92
2023/07/23 10:59:15;;;;;;;3.22;2.20;;;;;;;17.30;100.00;100571.91;4937199;29;20557;-92
2023/07/23 11:01:45;;;;;;;3.67;2.40;;;;;;;17.41;100.00;100584.06;4936950;29;20644;-93
2023/07/23 11:04:17;;;;;;;2.63;2.40;;;;;;;17.48;100.00;100572.00;4936087;29;20063;-92
2023/07/23 11:07:04;;;;;;;2.38;2.08;;;;;;;17.68;100.00;100574.16;4937057;29;20028;-92
2023/07/23 11:09:34;;;;;;;2.90;2.20;;;;;;;17.93;100.00;100577.28;4936556;29;20050;-93
2023/07/23 11:12:01;;;;;;;6.07;2.70;;;;;;;18.10;100.00;100570.34;4935718;29;20028;-92
2023/07/23 11:14:28;;;;;;;3.00;2.70;;;;;;;18.27;100.00;100594.78;4935754;29;20276;-91
2023/07/23 11:16:58;;;;;;;3.30;2.63;;;;;;;18.27;100.00;100583.94;4936070;29;20361;-93
2023/07/23 11:19:25;;;;;;;3.08;2.88;;;;;;;18.57;100.00;100584.16;4937688;29;20118;-93
2023/07/23 11:21:56;;;;;;;3.30;3.00;;;;;;;18.99;100.00;100582.91;4936573;29;20032;-92
2023/07/23 11:24:23;;;;;;;2.72;2.53;;;;;;;19.29;100.00;100578.38;4937949;29;20078;-93
2023/07/23 11:26:49;;;;;;;4.78;2.70;;;;;;;19.60;100.00;100596.38;4937294;29;20090;-92
2023/07/23 11:29:15;;;;;;;3.13;2.55;;;;;;;19.93;100.00;100586.81;4926172;29;20103;-91
2023/07/23 11:31:42;;;;;;;3.00;2.70;;;;;;;20.22;100.00;100593.41;4944251;29;20373;-93
2023/07/23 11:34:08;;;;;;;5.32;2.80;;;;;;;20.26;100.00;100594.34;4942906;29;20028;-92
2023/07/23 11:36:35;;;;;;;2.70;2.50;;;;;;;20.18;100.00;100603.34;4942066;29;20491;-95
2023/07/23 11:39:01;;;;;;;2.60;2.40;;;;;;;20.21;100.00;100580.94;4943137;29;20303;-94
2023/07/23 11:41:32;;;;;;;3.10;2.60;;;;;;;20.67;100.00;100591.97;4938058;29;20085;-93
2023/07/23 11:44:00;;;;;;;3.17;2.78;;;;;;;21.32;100.00;100594.28;4941345;29;20023;-94
2023/07/23 11:46:26;;;;;;;3.03;2.72;;;;;;;21.70;100.00;100578.84;4940374;29;20476;-94
2023/07/23 11:48:54;;;;;;;3.03;2.70;;;;;;;22.14;100.00;100589.97;4938739;29;20031;-93
2023/07/23 11:51:20;;;;;;;4.70;2.70;;;;;;;22.39;99.97;100584.47;4938715;29;20043;-94
2023/07/23 11:53:51;;;;;;;4.75;3.05;;;;;;;22.39;97.20;100566.16;4939233;29;20027;-94
2023/07/23 11:56:16;;;;;;;4.40;3.38;;;;;;;22.50;97.06;100590.28;4937544;29;20567;-94
2023/07/23 11:58:42;;;;;;;5.43;2.80;;;;;;;22.47;96.06;100560.94;4937994;29;20110;-95
2023/07/23 12:01:09;;;;;;;3.13;2.93;;;;;;;22.81;96.50;100545.13;4938101;29;20392;-94
2023/07/23 12:03:40;;;;;;;4.22;3.15;;;;;;;22.87;93.31;100545.66;4940700;29;20066;-94
2023/07/23 12:06:08;;;;;;;4.18;3.20;;;;;;;23.01;91.50;100548.00;4939025;29;20058;-95
2023/07/23 12:08:35;;;;;;;4.53;3.47;;;;;;;22.50;89.85;100544.66;4953203;29;20019;-96
2023/07/23 12:11:13;;;;;;;4.40;3.22;;;;;;;22.90;93.17;100564.91;4930052;29;20079;-95
2023/07/23 12:13:53;;;;;;;3.78;3.20;;;;;;;23.16;89.09;100539.03;4943419;29;20031;-96
2023/07/23 12:17:06;;;;;;;4.55;3.30;;;;;;;23.33;90.38;100535.19;4940402;29;20118;-95
2023/07/23 12:20:03;;;;;;;4.47;2.92;;;;;;;24.03;87.03;100572.06;4946110;28;20040;-96
2023/07/23 12:22:33;;;;;;;4.28;3.20;;;;;;;23.78;84.34;100543.28;4946245;29;20028;-96
2023/07/23 12:25:02;;;;;;;3.67;3.27;;;;;;;23.32;83.10;100530.88;4945866;29;20114;-96
2023/07/23 12:38:39;;;;;;;4.13;2.92;;;;;;;23.43;83.15;100512.78;4995955;23;20063;-96